AirNav   ATP
 
 1101 users online  

KHSD Sundance Airport
Oklahoma City, Oklahoma, USA

GOING TO OKLAHOMA CITY?


FAA INFORMATION EFFECTIVE 26 APRIL 2018

Location

FAA Identifier: HSD
Lat/Long: 35-36-06.6000N / 097-42-22.2000W
35-36.110000N / 097-42.370000W
35.6018333 / -97.7061667
(estimated)
Elevation: 1192.9 ft. / 363.6 m (surveyed)
Variation: 04E (2020)
From city: 12 miles NW of OKLAHOMA CITY, OK
Time zone: UTC -5 (UTC -6 during Standard Time)
Zip code: 73099

Airport Operations

Airport use: Open to the public
Control tower: no
ARTCC: FORT WORTH CENTER
FSS: MC ALESTER FLIGHT SERVICE STATION
NOTAMs facility: HSD (NOTAM-D service available)
Attendance: 0600-2000
Wind indicator: lighted
Segmented circle: no
Lights: ACTVT MIRL RY 18/36 AND VASI RYS 18 & 36 - CTAF.
Beacon: white-green (lighted land airport)
Operates sunset to sunrise.

Airport Communications

CTAF/UNICOM: 122.7
WX AWOS-3: 120.975 (405-283-9848)
OKE CITY APPROACH: 124.6
OKE CITY DEPARTURE: 124.6
CLEARANCE DELIVERY: 123.7
WX ASOS at PWA (5 nm SE): PHONE 405-798-2013
WX AWOS-3 at RCE (9 nm SW): 125.05 (405-354-2617)
WX ASOS at OKC (14 nm S): PHONE 405-686-4711
WX AWOS-3 at RQO (17 nm SW): 118.475 (405-262-0087)

Nearby radio navigation aids

VOR radial/distance  VOR name  Freq  Var
PWAr317/5.0WILEY POST VOR/DME113.4008E
IRWr335/15.3WILL ROGERS VORTAC114.1007E
IFIr121/19.0KINGFISHER VORTAC114.7009E

Airport Services

Fuel available: 100LL JET-A
100LL AVBL 24 HR SELF-SERVE WITH CREDIT CARD.
Parking: hangars and tiedowns
Airframe service: MINOR
Powerplant service: MINOR
Bottled oxygen: NONE
Bulk oxygen: NONE

Runway Information

Runway 18/36

Dimensions: 5001 x 100 ft. / 1524 x 30 m
Surface: concrete, in good condition
Runway edge lights: medium intensity
RUNWAY 18  RUNWAY 36
Latitude: 35-36.521587N35-35.697898N
Longitude: 097-42.387280W097-42.351513W
Elevation: 1152.9 ft.1192.9 ft.
Traffic pattern: rightleft
Runway heading: 174 magnetic, 178 true354 magnetic, 358 true
Markings: nonprecision, in good conditionnonprecision, in good condition
Visual slope indicator: 2-box VASI on left (3.00 degrees glide path)
VASI UNUSABLE BYD 7 DEGS RIGHT & LEFT OF CNTRLN.
2-box VASI on left (3.00 degrees glide path)
VASI UNUSABLE BYD 7 DEGS LEFT OF CNTLRN.
Touchdown point: yes, no lightsyes, no lights
Instrument approach: LOCALIZER
Obstructions: none16 ft. trees, 340 ft. from runway, 135 ft. right of centerline, 8:1 slope to clear
+10 FT ROAD AT 103 FT, +3 FT FENCE AT 65 FT, +15 FT TREES 120 FT FM THLD AND 150 FT R.

Airport Ownership and Management from official FAA records

Ownership: Privately-owned
Owner: HUNTER GROUP LLC
13000 N. SARA RD.
YUKON, OK 73099
Phone 405-373-3886
Manager: JERRY HUNTER
13000 N. SARA RD.
YUKON, OK 73099
Phone 405-373-3886
JORDAN KNUDSON GENERAL MANAGER 405-568-1663

Airport Operational Statistics

Aircraft based on the field: 210
Single engine airplanes: 170
Multi engine airplanes: 31
Jet airplanes: 8
Helicopters: 1
    
Aircraft operations: avg 108/day *
65% local general aviation
35% transient general aviation
* for 12-month period ending 21 November 2016

Instrument Procedures

NOTE: All procedures below are presented as PDF files. If you need a reader for these files, you should download the free Adobe Reader.

NOT FOR NAVIGATION. Please procure official charts for flight.
FAA instrument procedures published for use from 26 April 2018 at 901Z to 24 May 2018 at 0900Z.

 
STARs - Standard Terminal Arrivals
GULLI TWO **NEW**   2 pages: [1] [2] (271KB)
 
IAPs - Instrument Approach Procedures
RNAV (GPS) RWY 18   download (186KB)
RNAV (GPS) RWY 36   download (158KB)
VOR RWY 17   download (159KB)
NOTE: Special Take-Off Minimums/Departure Procedures apply   download (851KB)

Other nearby airports with instrument procedures:

KPWA - Wiley Post Airport (5 nm SE)
KRCE - Clarence E Page Municipal Airport (9 nm SW)
KOKC - Will Rogers World Airport (14 nm S)
KRQO - El Reno Regional Airport (17 nm SW)
KTIK - Tinker Air Force Base (19 nm SE)
 
Loc | Ops | Rwys | IFR | FBO | Links
Com | Nav | Svcs | Stats | Notes

AirNav Hotels Sweepstakes
 
Area around KHSD (Sundance Airport)
 
Road maps at: MapQuest Bing Google
 
Aerial photo
WARNING: Photo may not be current or correct
Aerial photo of KHSD (Sundance Airport)
Photo taken 23-Jun-2016
looking south.

Do you have a better or more recent aerial photo of Sundance Airport that you would like to share? If so, please send us your photo.

 
Sectional chart

 
Airport diagram
CAUTION: Diagram may not be current
Diagram of KHSD (Sundance Airport)
 
Airport distance calculator
Flying to Sundance Airport? Find the distance to fly.

From to KHSD

Sunrise and sunset
Times for 23-May-2018
 Local
(UTC-5)
 Zulu
(UTC)
Morning civil twilight05:5310:53
Sunrise06:2111:21
Sunset20:3401:34
Evening civil twilight21:0302:03

Current date and time
Zulu (UTC)  23-May-2018 22:42:51
Local (UTC-5)  23-May-2018 17:42:51
 
METAR
KHSD 231250Z AUTO 19009KT 10SM CLR 23/21 A3006 RMK A01
KPWA 
5nm SE 
232153Z 17012KT 10SM FEW055 31/18 A2999 RMK AO2 SLP139 T03110183
KRCE 
9nm SW 
232215Z AUTO 18009G15KT 10SM CLR 31/18 A3000 RMK AO2
KOKC 
14nm S 
232152Z 16007KT 10SM SCT050 SCT080 BKN250 31/18 A3000 RMK AO2 SLP143 T03060178
KRQO 
17nm SW 
232215Z AUTO 16015KT 10SM SCT055 31/18 A3001 RMK AO2 T03140183
KTIK 
20nm SE 
232156Z AUTO 15008KT 10SM CLR 30/19 A3000 RMK AO2 SLP153 T03010188
TAF
KOKC 
14nm S 
231720Z 2318/2418 18010KT P6SM SCT030 BKN250 FM240100 14006KT P6SM BKN250 FM241400 19008KT P6SM BKN030
KTIK 
20nm SE 
231700Z 2317/2423 16010KT 9999 FEW030 QNH3004INS BECMG 2318/2319 16010G15KT 9999 SCT050 QNH2997INS BECMG 2323/2324 13012KT 9999 SKC QNH2999INS BECMG 2411/2412 12007KT 9999 SCT060 QNH3003INS TX31/2320Z TN21/2411Z
NOTAMs
Click for the latest NOTAMs
NOTAMs are issued by the DoD/FAA and will open in a separate window not controlled by AirNav.

 

 
 

FBO, Fuel Providers, and Aircraft Ground Support

  
 Business Name 
 
 Contact 
 
 Services / Description 
 
Fuel Prices
 
Comments
  
Sundance Airport LLC UNICOM 122.70
405-373-3886
[web site]
[email]
New AWOS and NEVER A RAMP FEE. Maintenance Department offers MAJOR comprehensive repair including Annuals, and Sundance Flight Academy includes a Redbird FMX Simulator. New Courtesy Cars and completely remodeled, state-of-the-art FBO.
More info and photos of Sundance Airport LLC
 
AirBoss™ fuel program   AVTRIP   Crew cars   Enterprise Rent-A-Car   Hertz  
 
Avfuel
100LL Jet A
FS $4.20 $3.40 
SS $3.90 --- 
GUARANTEED
AirBossMEMBER
PRICING
FS $4.15 $3.35 
 
   34 read write
FS=Full service
SS=Self service
Update Fuel Prices
 

Would you like to see your business listed on this page?

 If your business provides an interesting product or service to pilots, flight crews, aircraft, or users of the Sundance Airport, you should consider listing it here.  To start the listing process, click on the button below
 
Add a business
 

Other Pages about Sundance Airport

sundanceairport.com
 
Update a link
 
Copyright © AirNav, LLC. All rights reserved. Privacy Policy  Contact